Weather reports worldwide

Advertisment
Huercal Overa, Spain (8428): temperature & dewpoint: 19.03.2019 18:00:00 - 25.03.2019 18:00:00 (CET)Huercal Overa, Spain (8428): wind speed & gusts: 19.03.2019 18:00:00 - 25.03.2019 18:00:00 (CET)Huercal Overa, Spain (8428): wind direction: 19.03.2019 18:00:00 - 25.03.2019 18:00:00 (CET)Huercal Overa, Spain (8428): reduced air pressure: 19.03.2019 18:00:00 - 25.03.2019 18:00:00 (CET)Huercal Overa, Spain (8428): precipitation: 19.03.2019 18:00:00 - 25.03.2019 18:00:00 (CET)
Date & Time tt [°C] td [°C] ff [km/h] ff [kn] fx [km/h] fx [kn] dd ppp [hPa] rr [mm]
25.03.2019 18:00:00 - - - - - - - - -
25.03.2019 17:00:00 18,9 -0,5 9 5 27 14 SE 1016,4 0,0
25.03.2019 16:00:00 21,3 0,4 6 4 22 12 ESE 1016,2 0,0
25.03.2019 15:00:00 20,7 0,4 10 6 23 13 ESE 1016,8 0,0
25.03.2019 14:00:00 20,7 -0,7 10 5 27 15 ESE 1017,7 0,0
25.03.2019 13:00:00 20,4 -0,3 8 5 28 15 ESE 1018,8 -
25.03.2019 12:00:00 18,2 -1,2 11 6 27 15 ESE 1020,0 0,0
25.03.2019 11:00:00 18,5 -0,5 8 4 25 13 E 1020,1 0,0
25.03.2019 10:00:00 17,5 -0,7 2 1 12 7 ESE 1020,4 0,0
25.03.2019 09:00:00 13,7 0,6 1 0 5 3 SSE 1021,2 0,0
25.03.2019 08:00:00 9,8 0,6 0 0 6 4 NW 1021,4 0,0
25.03.2019 07:00:00 8,7 0,6 1 1 6 3 NW 1021,1 -
25.03.2019 06:00:00 8,8 0,6 0 0 7 4 SSW 1020,9 0,0
25.03.2019 05:00:00 10,2 0,2 0 0 4 2 WNW 1021,0 0,0
25.03.2019 04:00:00 10,4 -0,5 1 1 6 4 W 1021,5 0,0
25.03.2019 03:00:00 11,2 0,0 1 0 7 4 NW 1021,6 0,0
25.03.2019 02:00:00 11,0 0,4 0 0 8 5 W 1022,0 0,0
25.03.2019 01:00:00 12,3 0,4 3 2 7 4 N 1022,0 -
25.03.2019 00:00:00 12,6 1,1 2 1 8 4 ENE 1022,4 0,0
24.03.2019 23:00:00 12,3 3,0 3 1 8 4 NE 1022,6 0,0
24.03.2019 22:00:00 12,8 5,6 0 0 4 2 ENE 1022,9 0,0
24.03.2019 21:00:00 13,2 4,8 1 0 6 3 SW 1022,7 0,0
24.03.2019 20:00:00 14,1 4,6 0 0 11 6 SW 1022,1 0,0
24.03.2019 19:00:00 15,1 3,6 1 1 13 7 SW 1021,8 -
24.03.2019 18:00:00 16,1 1,1 6 3 16 8 E 1021,7 0,0
24.03.2019 17:00:00 16,7 1,9 5 3 18 10 S 1021,6 0,0
24.03.2019 16:00:00 17,0 1,5 5 3 18 10 SE 1021,7 0,0
24.03.2019 15:00:00 17,8 1,7 9 5 26 14 ESE 1021,9 0,0
24.03.2019 14:00:00 17,7 1,7 7 4 22 12 ESE 1022,4 0,0
24.03.2019 13:00:00 17,0 1,1 11 6 26 14 ESE 1023,3 -
24.03.2019 12:00:00 17,0 1,5 10 5 27 14 ENE 1023,4 0,0
24.03.2019 11:00:00 14,0 1,3 7 4 26 14 E 1024,6 0,0
24.03.2019 10:00:00 13,6 2,3 4 2 - - E 1024,6 -
24.03.2019 09:00:00 11,7 4,5 0 0 5 3 W 1024,2 0,0
24.03.2019 08:00:00 9,9 3,4 0 0 8 5 ENE 1024,2 0,0
24.03.2019 07:00:00 8,2 4,3 1 0 7 4 NW 1024,1 -
24.03.2019 06:00:00 8,0 4,8 2 1 6 3 NW 1023,8 0,0
24.03.2019 05:00:00 8,5 5,5 3 2 8 5 NNW 1023,7 0,0
24.03.2019 04:00:00 8,4 5,5 4 2 7 4 NNW 1023,8 0,0
24.03.2019 03:00:00 9,0 5,9 4 2 13 7 N 1024,3 0,0
24.03.2019 02:00:00 9,4 6,1 5 3 12 7 E 1024,2 0,0
24.03.2019 01:00:00 9,7 6,4 5 3 20 11 E 1024,5 -
24.03.2019 00:00:00 10,3 6,4 5 3 16 9 E 1024,8 0,0
23.03.2019 23:00:00 10,6 5,9 8 4 20 11 E 1024,8 0,0
23.03.2019 22:00:00 10,7 6,7 4 2 11 6 E 1025,1 0,0
23.03.2019 21:00:00 10,7 7,7 0 0 5 3 NNW 1025,0 0,0
23.03.2019 20:00:00 10,7 7,6 2 1 5 3 NNW 1024,8 0,0
23.03.2019 19:00:00 11,3 6,2 0 0 11 6 E 1024,4 -
23.03.2019 18:00:00 11,3 6,4 2 1 16 9 E 1024,3 0,0
23.03.2019 17:00:00 11,7 6,4 5 3 17 9 ENE 1024,4 0,0
23.03.2019 16:00:00 10,7 7,7 2 1 7 4 WNW 1024,9 0,1
23.03.2019 15:00:00 10,8 7,3 1 0 15 8 NNW 1025,3 0,0
23.03.2019 14:00:00 11,0 7,3 4 2 16 9 E 1025,8 0,1
23.03.2019 13:00:00 10,2 6,8 8 4 28 15 ENE 1026,3 -
23.03.2019 12:00:00 11,6 3,8 9 5 33 18 ENE 1026,7 0,1
23.03.2019 11:00:00 15,5 0,4 10 5 27 15 ENE 1025,3 0,0
23.03.2019 10:00:00 14,5 0,4 9 5 23 12 E 1026,0 0,0
23.03.2019 09:00:00 12,0 1,9 1 0 6 4 ESE 1026,4 0,0
23.03.2019 08:00:00 10,3 2,7 1 1 5 3 NE 1026,1 0,0
23.03.2019 07:00:00 8,7 2,5 0 0 6 3 N 1026,0 -
23.03.2019 06:00:00 9,4 3,4 0 0 3 2 N 1025,6 0,0
23.03.2019 05:00:00 9,4 3,2 0 0 4 2 N 1025,8 0,0
23.03.2019 04:00:00 9,8 3,2 0 0 6 3 ENE 1025,8 0,0
23.03.2019 03:00:00 10,2 3,2 1 1 5 3 SSE 1025,9 0,0
23.03.2019 02:00:00 10,1 3,6 0 0 5 3 S 1026,0 0,0
23.03.2019 01:00:00 10,1 3,4 4 2 8 4 NNW 1026,3 -
23.03.2019 00:00:00 10,1 3,6 0 0 3 2 N 1027,1 0,0
22.03.2019 23:00:00 11,2 3,8 0 0 5 3 NNE 1027,1 0,0
22.03.2019 22:00:00 11,9 3,9 0 0 7 4 WNW 1027,0 0,0
22.03.2019 21:00:00 12,0 3,8 3 2 6 4 S 1026,7 0,0
22.03.2019 20:00:00 12,5 3,4 2 1 9 5 SSW 1026,0 0,0
22.03.2019 19:00:00 13,1 3,2 6 3 19 10 SW 1025,5 -
22.03.2019 18:00:00 13,9 2,5 13 7 24 13 SSW 1025,0 0,0
22.03.2019 17:00:00 14,6 1,5 15 8 26 14 SSW 1024,7 0,0
22.03.2019 16:00:00 15,9 0,9 13 7 28 15 S 1024,6 0,0
22.03.2019 15:00:00 16,3 -2,7 10 5 19 10 E 1024,6 0,0
22.03.2019 14:00:00 16,3 -2,2 8 4 19 10 ESE 1025,4 0,0
22.03.2019 13:00:00 15,9 -2,7 6 4 21 11 E 1025,9 -
22.03.2019 12:00:00 15,1 -2,7 6 3 21 11 ESE 1027,0 0,0
22.03.2019 11:00:00 14,1 -1,4 6 3 21 12 ENE 1027,3 0,0
22.03.2019 10:00:00 11,0 -2,7 1 1 8 4 S 1028,2 0,0
22.03.2019 09:00:00 8,3 -3,0 2 1 5 3 W 1028,1 0,0
22.03.2019 08:00:00 4,9 -3,3 1 0 5 3 NW 1027,3 0,0
22.03.2019 07:00:00 4,6 -3,6 0 0 4 2 N 1027,2 -
22.03.2019 06:00:00 5,1 -3,0 3 1 7 4 NW 1026,7 0,0
22.03.2019 05:00:00 5,1 -2,2 0 0 4 2 N 1026,7 0,0
22.03.2019 04:00:00 6,7 -2,7 0 0 5 3 N 1026,7 0,0
22.03.2019 03:00:00 6,1 1,3 3 2 8 4 NW 1027,1 0,0
22.03.2019 02:00:00 6,4 1,1 2 1 8 4 E 1027,7 0,0
22.03.2019 01:00:00 7,0 0,9 0 0 4 2 WNW 1027,8 -
22.03.2019 00:00:00 8,5 1,3 1 1 8 5 E 1027,9 0,0
21.03.2019 23:00:00 9,8 1,7 3 2 8 5 E 1028,0 0,0
21.03.2019 22:00:00 10,1 1,9 4 2 9 5 ESE 1027,8 0,0
21.03.2019 21:00:00 10,9 1,9 1 0 8 5 SSE 1027,2 0,0
21.03.2019 20:00:00 11,3 1,1 4 2 14 8 SSE 1026,3 0,0
21.03.2019 19:00:00 12,3 -2,7 6 3 20 11 SE 1025,8 -
21.03.2019 18:00:00 13,5 -3,3 9 5 20 11 SE 1025,0 0,0
21.03.2019 17:00:00 14,2 -2,7 8 5 28 15 SE 1025,0 0,0
21.03.2019 16:00:00 14,8 -5,1 10 5 31 17 ESE 1025,2 0,0
21.03.2019 15:00:00 14,6 -5,4 12 6 34 19 E 1025,1 0,0
21.03.2019 14:00:00 14,4 -6,0 9 5 35 19 E 1026,1 0,0
21.03.2019 13:00:00 14,9 -4,5 13 7 31 17 E 1026,6 -
21.03.2019 12:00:00 14,2 -4,5 12 6 32 17 E 1026,9 0,0
21.03.2019 11:00:00 13,0 -4,2 9 5 28 15 E 1027,6 0,0
21.03.2019 10:00:00 11,3 -4,5 11 6 25 13 ENE 1028,1 0,0
21.03.2019 09:00:00 10,2 -2,7 2 1 9 5 SSW 1028,2 0,0
21.03.2019 08:00:00 4,8 -2,7 3 1 10 5 WNW 1027,9 0,0
21.03.2019 07:00:00 3,5 -1,7 0 0 4 2 E 1027,3 -
21.03.2019 06:00:00 4,5 -1,7 0 0 8 5 N 1026,8 0,0
21.03.2019 05:00:00 4,1 -0,7 2 1 4 2 W 1026,8 0,0
21.03.2019 04:00:00 4,6 -0,7 1 0 7 4 WNW 1027,1 0,0
21.03.2019 03:00:00 5,2 -0,3 0 0 6 3 N 1027,6 0,0
21.03.2019 02:00:00 4,9 -0,3 0 0 6 3 WNW 1028,1 0,0
21.03.2019 01:00:00 6,7 0,9 2 1 8 5 ENE 1028,7 -
21.03.2019 00:00:00 7,6 1,5 2 1 8 4 E 1028,8 0,0
20.03.2019 23:00:00 9,2 1,7 0 0 6 3 NNE 1029,0 0,0
20.03.2019 22:00:00 9,5 1,9 1 0 7 4 NNE 1028,9 0,0
20.03.2019 21:00:00 9,6 1,3 3 2 13 7 ESE 1028,5 0,0
20.03.2019 20:00:00 10,0 1,1 5 3 26 14 SE 1027,6 0,0
20.03.2019 19:00:00 10,2 1,9 8 4 26 14 SE 1027,2 -
20.03.2019 18:00:00 11,9 0,0 8 4 26 14 SE 1026,2 0,0
20.03.2019 17:00:00 12,0 -1,0 9 5 23 12 SE 1025,9 0,0
20.03.2019 16:00:00 14,2 -1,4 9 5 24 13 ESE 1025,4 0,0
20.03.2019 15:00:00 14,9 0,0 7 4 26 14 SE 1025,5 0,0
20.03.2019 14:00:00 12,4 -0,3 11 6 25 14 ESE 1027,1 0,0
20.03.2019 13:00:00 12,9 -2,7 10 5 25 13 E 1027,6 -
20.03.2019 12:00:00 13,1 -3,3 11 6 26 14 ESE 1026,9 0,0
20.03.2019 11:00:00 13,7 -1,4 5 3 22 12 SE 1027,3 0,0
20.03.2019 10:00:00 12,2 0,0 2 1 9 5 ESE 1027,8 0,0
20.03.2019 09:00:00 11,0 1,3 1 0 4 2 SE 1027,5 0,0
20.03.2019 08:00:00 6,5 2,5 1 1 5 3 NW 1027,2 0,0
20.03.2019 07:00:00 6,2 2,3 0 0 6 3 N 1026,6 -
20.03.2019 06:00:00 7,0 2,9 3 2 8 5 E 1025,9 0,0
20.03.2019 05:00:00 7,5 2,9 0 0 4 2 N 1025,8 0,0
20.03.2019 04:00:00 7,9 2,7 0 0 5 3 NW 1025,8 0,0
20.03.2019 03:00:00 8,6 3,6 0 0 3 2 N 1026,4 0,0
20.03.2019 02:00:00 9,2 3,8 0 0 5 3 NNE 1026,9 0,0
20.03.2019 01:00:00 9,3 3,8 2 1 7 4 E 1027,1 -
20.03.2019 00:00:00 10,0 3,4 0 0 5 3 E 1026,9 0,0
19.03.2019 23:00:00 10,1 3,9 1 0 9 5 ESE 1027,0 0,0
19.03.2019 22:00:00 10,3 4,3 5 3 13 7 ESE 1026,4 0,0
19.03.2019 21:00:00 10,7 3,8 1 1 12 7 SE 1025,6 0,0
19.03.2019 20:00:00 10,7 4,1 5 3 14 7 SSE 1024,8 0,0
19.03.2019 19:00:00 11,3 4,3 5 3 21 11 ESE 1024,0 -
19.03.2019 18:00:00 11,8 3,8 13 7 29 15 E 1022,9 0,0

tt = temperature
td = dewpoint
ff = wind speed
fx = gusts
dd = wind direction
ppp = reduced air pressure
rr = precipitation

Next stations